Thunder radar more information blitzortung!


Radar de pluja more information rain snow radar


Visita la nostra xarxa de llocs de meteo:

Template documentation
and downloads

And another site



No particular awareness of the weather is required.    There are no Weather-warnings

Pagina Historial Weather Underground text

Diari Resum Juliol 17, 2017 Unitats:  Mètric    Imperial   Tant
« Previous Dia
SegĂźent Dia »
Diari Setmana Mensual Anual Personalitzada
  Maxima: Minima: Media:
Temperatura: -17.8 °C -6.4 °C -2.9 °C
Punt de rosada: -17.8 °C -11.3 °C -9.7 °C
Humitat: Humidity % 31 % 49 %
Wind Speed: 0 km/h 0 km/h 15.4 km/h
RĂ fegues de vent: 0 km/h - -
Vent:- - ESE
Pression baro: 0 hPa 34361.1 hPa -
Precipitacions: 0 mm    
Historical Graphs
 
 
Dades de taula per Juliol 17, 2017
Temps Temperatura Punt de rosada Pression baro Vent Wind Speed RĂ fegues de vent Humitat Rainfall Rate (Hourly)
-17.8 °C -17.8 °C 0 hPa Calm     Humidity % 0 mm
00:00 -5.7 °C -8.5 °C 34395 hPa Calm   5.1 km/h 73 % 0 mm
00:02 -4.9 °C -8.9 °C 34462.7 hPa WSW 8 km/h 8 km/h 64 % 0 mm
00:07 -4.9 °C -8.7 °C 34428.8 hPa WSW 6.3 km/h 6.3 km/h 65 % 0 mm
00:10 -5.8 °C -8.6 °C 34395 hPa Calm   5.1 km/h 73 % 0 mm
00:20 -5.8 °C -8.7 °C 34395 hPa SW 2.6 km/h 2.6 km/h 73 % 0 mm
00:30 -5.8 °C -8.6 °C 34428.8 hPa South 2.6 km/h 5.1 km/h 73 % 0 mm
00:40 -5.8 °C -8.6 °C 34428.8 hPa ENE 2.6 km/h 5.1 km/h 73 % 0 mm
00:50 -5.8 °C -8.8 °C 34428.8 hPa NE 2.6 km/h 5.1 km/h 72 % 0 mm
01:00 -5.9 °C -8.9 °C 34428.8 hPa NE 5.1 km/h 7.7 km/h 71 % 0 mm
01:10 -6 °C -9.1 °C 34428.8 hPa NNE 2.6 km/h 7.7 km/h 71 % 0 mm
01:20 -6.1 °C -9.1 °C 34428.8 hPa Calm   7.7 km/h 71 % 0 mm
01:30 -6.2 °C -9.1 °C 34428.8 hPa NNE 2.6 km/h 5.1 km/h 72 % 0 mm
01:40 -6.3 °C -9.2 °C 34428.8 hPa NE 2.6 km/h 5.1 km/h 72 % 0 mm
01:50 -6.3 °C -9.2 °C 34428.8 hPa NE 2.6 km/h 5.1 km/h 72 % 0 mm
02:00 -6.4 °C -9.3 °C 34462.7 hPa Calm   5.1 km/h 72 % 0 mm
02:10 -6.3 °C -9.2 °C 34462.7 hPa Calm   2.6 km/h 72 % 0 mm
02:20 -6.3 °C -9.2 °C 34462.7 hPa Calm   2.6 km/h 72 % 0 mm
02:30 -6 °C -8.9 °C 34462.7 hPa Calm     72 % 0 mm
02:40 -5.8 °C -8.9 °C 34462.7 hPa WSW 2.6 km/h   71 % 0 mm
02:50 -5.3 °C -8.4 °C 34462.7 hPa NNW 5.1 km/h 5.1 km/h 71 % 0 mm
03:00 -5.2 °C -8.2 °C 34462.7 hPa NNE 5.1 km/h 7.7 km/h 71 % 0 mm
03:10 -5 °C -8.2 °C 34462.7 hPa NE 2.6 km/h 7.7 km/h 70 % 0 mm
03:20 -4.9 °C -8.1 °C 34462.7 hPa NE 2.6 km/h 7.7 km/h 70 % 0 mm
03:30 -4.8 °C -8.2 °C 34462.7 hPa NE 7.7 km/h 10.3 km/h 69 % 0 mm
03:40 -4.6 °C -7.8 °C 34462.7 hPa ENE 5.1 km/h 7.7 km/h 70 % 0 mm
03:50 -4.6 °C -7.8 °C 34462.7 hPa ENE 2.6 km/h 7.7 km/h 70 % 0 mm
04:00 -4.3 °C -7.7 °C 34462.7 hPa East 7.7 km/h 7.7 km/h 69 % 0 mm
04:10 -4.6 °C -7.7 °C 34462.7 hPa ESE 7.7 km/h 10.3 km/h 71 % 0 mm
04:30 -4 °C -7.4 °C 34462.7 hPa ESE 7.7 km/h 10.3 km/h 69 % 0 mm
04:40 -3.9 °C -7.3 °C 34462.7 hPa East 5.1 km/h 7.7 km/h 69 % 0 mm
04:50 -3.9 °C -7.6 °C 34462.7 hPa ESE 5.1 km/h 10.3 km/h 67 % 0 mm
05:00 -3.4 °C -7.2 °C 34462.7 hPa SE 7.7 km/h 12.9 km/h 66 % 0 mm
05:10 -3.3 °C -7.5 °C 34462.7 hPa ESE 12.9 km/h 12.9 km/h 63 % 0 mm
05:20 -3.3 °C -7.7 °C 34462.7 hPa East 7.7 km/h 10.3 km/h 62 % 0 mm
05:30 -3.2 °C -7.6 °C 34428.8 hPa East 2.6 km/h 10.3 km/h 62 % 0 mm
05:40 -2.6 °C -7.3 °C 34462.7 hPa East 5.1 km/h 12.9 km/h 60 % 0 mm
10:52 -2.7 °C -7.8 °C 34462.7 hPa East 10.3 km/h 10.3 km/h 57 % 0 mm
10:58 -2.6 °C -7.6 °C 34462.7 hPa ENE 15 km/h 15 km/h 58 % 0 mm
11:03 -2.6 °C -7.9 °C 34462.7 hPa SSW 15 km/h 15 km/h 56 % 0 mm
11:08 -2.4 °C -7.7 °C 34462.7 hPa ENE 9.8 km/h 9.8 km/h 56 % 0 mm
11:13 -2.3 °C -7.9 °C 34462.7 hPa ENE 22 km/h 22 km/h 54 % 0 mm
11:18 -2.4 °C -8 °C 34462.7 hPa East 9 km/h 9 km/h 54 % 0 mm
11:23 -2.2 °C -8.1 °C 34462.7 hPa NE 15 km/h 15 km/h 53 % 0 mm
11:28 -2.1 °C -7.9 °C 34462.7 hPa East 17.9 km/h 17.9 km/h 53 % 0 mm
11:29 -2.1 °C -7.9 °C 34462.7 hPa ENE 17.9 km/h 17.9 km/h 53 % 0 mm
11:34 -2.1 °C -8.1 °C 34462.7 hPa ENE 17.9 km/h 17.9 km/h 52 % 0 mm
11:39 -2.1 °C -8.1 °C 34462.7 hPa ENE 19.6 km/h 19.6 km/h 52 % 0 mm
11:44 -2.2 °C -8.2 °C 34462.7 hPa SE 15 km/h 15 km/h 52 % 0 mm
11:49 -2 °C -8.2 °C 34462.7 hPa ESE 20.9 km/h 20.9 km/h 51 % 0 mm
11:54 -1.8 °C -7.8 °C 34462.7 hPa North 17.9 km/h 17.9 km/h 52 % 0 mm
11:59 -1.8 °C -8.2 °C 34462.7 hPa ESE 20.9 km/h 20.9 km/h 50 % 0 mm
12:04 -1.8 °C -7.9 °C 34462.7 hPa ENE 23.8 km/h 23.8 km/h 51 % 0 mm
12:09 -1.6 °C -8.2 °C 34462.7 hPa East 15 km/h 15 km/h 49 % 0 mm
12:14 -1.7 °C -8.6 °C 34462.7 hPa ENE 26.9 km/h 26.9 km/h 47 % 0 mm
12:16 -1.6 °C -8.9 °C 34462.7 hPa ESE 26.9 km/h 26.9 km/h 45 % 0 mm
12:21 -1.5 °C -9.2 °C 34462.7 hPa SSE 29.8 km/h 29.8 km/h 43 % 0 mm
12:26 -1.2 °C -9.8 °C 34462.7 hPa East 15.3 km/h 15.3 km/h 39 % 0 mm
12:31 -1.2 °C -9.6 °C 34462.7 hPa SE 25.4 km/h 25.4 km/h 40 % 0 mm
12:36 -1.1 °C -9.5 °C 34462.7 hPa NE 23.8 km/h 23.8 km/h 40 % 0 mm
12:41 -1.1 °C -9.9 °C 34428.8 hPa ENE 26.9 km/h 26.9 km/h 38 % 0 mm
12:46 -1.2 °C -10.2 °C 34428.8 hPa ESE 20.9 km/h 20.9 km/h 37 % 0 mm
12:51 -1.3 °C -10.3 °C 34462.7 hPa ESE 15 km/h 15 km/h 37 % 0 mm
12:56 -1.4 °C -10.4 °C 34462.7 hPa East 35.7 km/h 35.7 km/h 37 % 0 mm
13:01 -1.2 °C -10.2 °C 34462.7 hPa ENE 23.8 km/h 23.8 km/h 37 % 0 mm
13:06 -1.2 °C -10.5 °C 34462.7 hPa ESE 32.8 km/h 32.8 km/h 36 % 0 mm
13:11 -1.2 °C -10.5 °C 34462.7 hPa ESE 23.8 km/h 23.8 km/h 36 % 0 mm
13:16 -1.3 °C -10.8 °C 34462.7 hPa ESE 38.8 km/h 38.8 km/h 35 % 0 mm
13:21 -1.3 °C -10.8 °C 34462.7 hPa East 23.3 km/h 38.8 km/h 35 % 0 mm
13:26 -1.1 °C -10.9 °C 34462.7 hPa ESE 23.8 km/h 23.8 km/h 34 % 0 mm
13:32 -1.3 °C -10.8 °C 34462.7 hPa SSE 23.8 km/h 23.8 km/h 35 % 0 mm
13:37 -1.2 °C -10.7 °C 34462.7 hPa ESE 33.6 km/h 33.6 km/h 35 % 0 mm
13:42 -1.2 °C -10.4 °C 34462.7 hPa NNE 32.8 km/h 32.8 km/h 36 % 0 mm
13:47 -1.2 °C -10.5 °C 34462.7 hPa SE 41.2 km/h 41.2 km/h 36 % 0 mm
13:52 -1.2 °C -10.5 °C 34462.7 hPa SE 41.7 km/h 41.7 km/h 36 % 0 mm
13:57 -1.3 °C -10.3 °C 34462.7 hPa ESE 33.2 km/h 33.2 km/h 37 % 0 mm
14:02 -1.3 °C -10.3 °C 34462.7 hPa ENE 32.8 km/h 32.8 km/h 37 % 0 mm
14:07 -1.3 °C -10.1 °C 34462.7 hPa ESE 32.8 km/h 32.8 km/h 38 % 0 mm
14:12 -1.2 °C -9.9 °C 34462.7 hPa ESE 35.7 km/h 35.7 km/h 38 % 0 mm
14:17 -1.2 °C -10.1 °C 34462.7 hPa SE 27.2 km/h 27.2 km/h 38 % 0 mm
14:22 -1.2 °C -10.1 °C 34462.7 hPa ESE 32.8 km/h 32.8 km/h 38 % 0 mm
14:27 -1.3 °C -10.1 °C 34462.7 hPa SSE 32.8 km/h 32.8 km/h 38 % 0 mm
14:32 -1.2 °C -10.1 °C 34462.7 hPa ENE 32.8 km/h 32.8 km/h 38 % 0 mm
14:37 -1.1 °C -10.1 °C 34428.8 hPa ESE 26.9 km/h 26.9 km/h 37 % 0 mm
14:42 -1 °C -10.3 °C 34428.8 hPa SSW 20.9 km/h 20.9 km/h 36 % 0 mm
14:47 -0.8 °C -10.2 °C 34428.8 hPa ESE 23.8 km/h 23.8 km/h 36 % 0 mm
14:52 -0.9 °C -10.4 °C 34428.8 hPa SE 17.9 km/h 17.9 km/h 35 % 0 mm
14:57 -1 °C -10.8 °C 34428.8 hPa ESE 23.8 km/h 23.8 km/h 34 % 0 mm
15:02 -0.9 °C -11 °C 34428.8 hPa East 25.1 km/h 25.1 km/h 33 % 0 mm
15:07 -1.1 °C -11.1 °C 34395 hPa ESE 26.9 km/h 26.9 km/h 33 % 0 mm
15:08 -1.1 °C -11.1 °C 34395 hPa ESE 26.9 km/h 26.9 km/h 33 % 0 mm
15:13 -0.7 °C -10.8 °C 34395 hPa ENE 26.9 km/h 26.9 km/h 33 % 0 mm
15:18 -0.8 °C -10.9 °C 34395 hPa ESE 35.7 km/h 35.7 km/h 33 % 0 mm
15:23 -0.8 °C -10.8 °C 34428.8 hPa ENE 20.9 km/h 20.9 km/h 33 % 0 mm
15:28 -0.8 °C -10.8 °C 34428.8 hPa ESE 26.9 km/h 26.9 km/h 33 % 0 mm
15:33 -1 °C -11 °C 34428.8 hPa ESE 44.7 km/h 44.7 km/h 33 % 0 mm
15:34 -1 °C -11 °C 34428.8 hPa East 44.7 km/h 44.7 km/h 33 % 0 mm
15:39 -0.9 °C -10.9 °C 34428.8 hPa NNE 32.8 km/h 32.8 km/h 33 % 0 mm
15:44 -0.8 °C -10.8 °C 34428.8 hPa East 26.9 km/h 26.9 km/h 33 % 0 mm
15:49 -0.7 °C -10.7 °C 34428.8 hPa ESE 32.8 km/h 32.8 km/h 33 % 0 mm
15:54 -0.6 °C -10.9 °C 34428.8 hPa ESE 26.9 km/h 26.9 km/h 32 % 0 mm
15:59 -0.4 °C -10.5 °C 34428.8 hPa ESE 22 km/h 22 km/h 33 % 0 mm
16:04 -0.7 °C -11.1 °C 34428.8 hPa East 27.2 km/h 27.2 km/h 32 % 0 mm
16:09 -0.8 °C -10.9 °C 34395 hPa SSE 23.8 km/h 23.8 km/h 33 % 0 mm
16:14 -0.6 °C -10.9 °C 34395 hPa ESE 15 km/h 15 km/h 32 % 0 mm
16:19 -0.6 °C -10.9 °C 34395 hPa East 17.9 km/h 17.9 km/h 32 % 0 mm
16:24 -0.5 °C -11.1 °C 34395 hPa ESE 17.9 km/h 17.9 km/h 31 % 0 mm
16:29 -0.3 °C -10.9 °C 34395 hPa ESE 20.9 km/h 20.9 km/h 31 % 0 mm
16:34 -0.7 °C -11 °C 34395 hPa SE 17.9 km/h 17.9 km/h 32 % 0 mm
16:40 -0.7 °C -11 °C 34395 hPa ESE 18.2 km/h 33.6 km/h 32 % 0 mm
16:45 -0.6 °C -10.9 °C 34395 hPa ESE 15.6 km/h 20.8 km/h 32 % 0 mm
16:50 -0.4 °C -10.8 °C 34395 hPa ESE 20.3 km/h 20.3 km/h 32 % 0 mm
16:55 -0.9 °C -10.9 °C 34395 hPa ENE 23.8 km/h 23.8 km/h 33 % 0 mm
17:00 -0.8 °C -10.8 °C 34395 hPa SSE 26.9 km/h 26.9 km/h 33 % 0 mm
17:05 -0.9 °C -11 °C 34395 hPa East 33.6 km/h 33.6 km/h 33 % 0 mm
17:10 -1 °C -11 °C 34428.8 hPa ESE 26.9 km/h 26.9 km/h 33 % 0 mm
17:15 -0.8 °C -11.2 °C 34428.8 hPa ESE 27.2 km/h 27.2 km/h 32 % 0 mm
17:20 -0.9 °C -10.9 °C 34428.8 hPa ESE 23.3 km/h 25.9 km/h 33 % 0 mm
17:25 -1.1 °C -11.1 °C 34395 hPa East 23.8 km/h 23.8 km/h 33 % 0 mm
17:30 -1.1 °C -11.2 °C 34395 hPa ESE 29.8 km/h 29.8 km/h 33 % 0 mm
17:35 -1.2 °C -11.2 °C 34395 hPa East 20.8 km/h 31.1 km/h 33 % 0 mm
17:40 -1.1 °C -11.2 °C 34361.1 hPa ESE 18.2 km/h 31.1 km/h 33 % 0 mm
17:45 -1.2 °C -11 °C 34361.1 hPa ESE 32.8 km/h 32.8 km/h 34 % 0 mm
17:50 -1.2 °C -11 °C 34361.1 hPa ENE 25.4 km/h 25.4 km/h 34 % 0 mm
17:55 -1.3 °C -10.8 °C 34395 hPa NE 26.9 km/h 26.9 km/h 35 % 0 mm
18:00 -1.3 °C -10.8 °C 34395 hPa SE 26.9 km/h 26.9 km/h 35 % 0 mm
18:05 -1.4 °C -10.9 °C 34395 hPa ESE 26.9 km/h 26.9 km/h 35 % 0 mm
18:10 -1.4 °C -10.9 °C 34361.1 hPa ESE 20.8 km/h 25.9 km/h 35 % 0 mm
18:15 -1.4 °C -10.9 °C 34361.1 hPa East 15.6 km/h 25.9 km/h 35 % 0 mm
18:20 -1.4 °C -10.9 °C 34361.1 hPa ESE 15.6 km/h 28.5 km/h 35 % 0 mm
18:25 -1.4 °C -10.9 °C 34395 hPa ESE 20.8 km/h 31.1 km/h 35 % 0 mm
18:30 -1.6 °C -11.1 °C 34395 hPa East 26.9 km/h 26.9 km/h 35 % 0 mm
18:35 -1.7 °C -11.1 °C 34395 hPa ESE 20.9 km/h 20.9 km/h 35 % 0 mm
18:40 -1.7 °C -10.9 °C 34395 hPa SE 20.9 km/h 20.9 km/h 36 % 0 mm
18:45 -1.7 °C -10.9 °C 34395 hPa East 23.8 km/h 23.8 km/h 36 % 0 mm
18:50 -1.7 °C -11.1 °C 34395 hPa SE 15.3 km/h 15.3 km/h 35 % 0 mm
18:55 -1.8 °C -11.3 °C 34395 hPa ESE 18.2 km/h 25.9 km/h 35 % 0 mm
19:00 -1.9 °C -11.1 °C 34395 hPa ESE 15.6 km/h 25.9 km/h 36 % 0 mm
19:05 -1.9 °C -11.3 °C 34395 hPa ESE 15.6 km/h 25.9 km/h 35 % 0 mm
19:10 -1.9 °C -11.3 °C 34395 hPa ESE 15.6 km/h 20.8 km/h 35 % 0 mm
19:15 -1.8 °C -11.3 °C 34395 hPa ESE 12.9 km/h 20.8 km/h 35 % 0 mm
19:20 -1.8 °C -11.2 °C 34395 hPa ESE 14 km/h 14 km/h 35 % 0 mm
19:25 -1.9 °C -11.3 °C 34361.1 hPa ESE 17.9 km/h 17.9 km/h 35 % 0 mm
19:30 -2 °C -11.2 °C 34361.1 hPa SSE 20.9 km/h 20.9 km/h 36 % 0 mm
19:35 -2.1 °C -11.2 °C 34361.1 hPa ENE 26.9 km/h 26.9 km/h 36 % 0 mm
19:40 -2.1 °C -11 °C 34395 hPa ESE 15.3 km/h 15.3 km/h 37 % 0 mm
19:45 -2.1 °C -11.1 °C 34395 hPa ESE 17.9 km/h 17.9 km/h 37 % 0 mm
19:50 -2.1 °C -11 °C 34395 hPa South 15 km/h 15 km/h 37 % 0 mm
19:55 -2.1 °C -11.2 °C 34395 hPa South 11.9 km/h 11.9 km/h 36 % 0 mm
20:00 -2.1 °C -11.1 °C 34395 hPa SSW 6 km/h 10.3 km/h 37 % 0 mm
20:05 -2.3 °C -11 °C 34395 hPa SE 18.2 km/h 18.2 km/h 38 % 0 mm
20:10 -2.5 °C -11.2 °C 34395 hPa East 15 km/h 15 km/h 38 % 0 mm
20:15 -2.6 °C -11.1 °C 34395 hPa East 16.6 km/h 16.6 km/h 39 % 0 mm
20:20 -2.7 °C -10.9 °C 34395 hPa ESE 16.1 km/h 16.1 km/h 40 % 0 mm
20:25 -2.8 °C -10.6 °C 34395 hPa ESE 17.9 km/h 17.9 km/h 42 % 0 mm
20:30 -2.9 °C -10.5 °C 34395 hPa East 17.9 km/h 17.9 km/h 43 % 0 mm
20:35 -3.1 °C -10.6 °C 34395 hPa ESE 15 km/h 15 km/h 43 % 0 mm
20:40 -3.1 °C -10.3 °C 34361.1 hPa ESE 7.7 km/h 18.2 km/h 45 % 0 mm
20:45 -3.2 °C -10.2 °C 34361.1 hPa SE 15 km/h 15 km/h 46 % 0 mm
20:50 -3.3 °C -9.9 °C 34361.1 hPa ESE 15 km/h 15 km/h 48 % 0 mm
20:55 -3.4 °C -9.8 °C 34395 hPa East 20.9 km/h 20.9 km/h 49 % 0 mm
21:00 -3.5 °C -9.7 °C 34395 hPa ENE 15 km/h 15 km/h 50 % 0 mm
21:05 -3.6 °C -9.6 °C 34395 hPa ENE 15 km/h 15 km/h 51 % 0 mm
21:10 -3.6 °C -9.7 °C 34395 hPa ESE 9 km/h 9 km/h 51 % 0 mm
21:15 -3.7 °C -9.6 °C 34395 hPa ESE 6.8 km/h 6.8 km/h 52 % 0 mm
21:20 -3.7 °C -9.4 °C 34395 hPa ENE 8.5 km/h 9.3 km/h 53 % 0 mm
21:25 -3.8 °C -9.5 °C 34395 hPa East 11.9 km/h 11.9 km/h 53 % 0 mm
21:30 -3.8 °C -9.6 °C 34395 hPa East 5.1 km/h 12.9 km/h 53 % 0 mm
21:35 -3.9 °C -9.4 °C 34395 hPa ESE 9 km/h 9 km/h 54 % 0 mm
21:40 -3.9 °C -9.2 °C 34428.8 hPa ENE 11.9 km/h 11.9 km/h 56 % 0 mm
21:45 -4.1 °C -8.9 °C 34428.8 hPa East 11.9 km/h 11.9 km/h 58 % 0 mm
21:50 -5.6 °C -8.6 °C 34395 hPa Calm     71 % 0 mm
21:51 -4.1 °C -8.8 °C 34428.8 hPa ESE 11.9 km/h 11.9 km/h 59 % 0 mm
21:56 -4.1 °C -9 °C 34428.8 hPa ESE 9 km/h 9 km/h 58 % 0 mm
22:00 -5.6 °C -8.6 °C 34395 hPa Calm     72 % 0 mm
22:01 -4.1 °C -8.7 °C 34428.8 hPa ENE 9.3 km/h 9.3 km/h 60 % 0 mm
22:06 -4.2 °C -8.8 °C 34428.8 hPa ESE 9.3 km/h 9.3 km/h 60 % 0 mm
22:10 -5.6 °C -8.6 °C 34395 hPa Calm     72 % 0 mm
22:11 -4.2 °C -8.8 °C 34428.8 hPa East 11.9 km/h 11.9 km/h 60 % 0 mm
22:17 -4.2 °C -8.8 °C 34428.8 hPa SE 11.9 km/h 11.9 km/h 60 % 0 mm
22:20 -5.6 °C -8.6 °C 34395 hPa Calm     72 % 0 mm
22:22 -4.3 °C -8.7 °C 34428.8 hPa SE 11.9 km/h 11.9 km/h 61 % 0 mm
22:27 -4.3 °C -8.9 °C 34428.8 hPa SW 6.3 km/h   60 % 0 mm
22:30 -5.7 °C -8.6 °C 34361.1 hPa Calm     72 % 0 mm
22:33 -4.3 °C -9.1 °C 34428.8 hPa SW 3.7 km/h   59 % 0 mm
22:37 -4.4 °C -9 °C 34462.7 hPa SW 3.1 km/h   60 % 0 mm
22:40 -5.7 °C -8.5 °C 34395 hPa Calm     73 % 0 mm
22:43 -4.4 °C -9 °C 34462.7 hPa Calm     60 % 0 mm
22:47 -4.4 °C -9 °C 34462.7 hPa Calm     60 % 0 mm
22:50 -5.7 °C -8.5 °C 34395 hPa Calm     73 % 0 mm
22:53 -4.4 °C -8.9 °C 34428.8 hPa ENE 6 km/h 6 km/h 61 % 0 mm
22:58 -4.5 °C -8.8 °C 34428.8 hPa WNW 3.1 km/h   62 % 0 mm
23:00 -5.8 °C -8.7 °C 34395 hPa Calm     73 % 0 mm
23:03 -4.5 °C -8.8 °C 34428.8 hPa NE 3.7 km/h 3.7 km/h 62 % 0 mm
23:08 -4.5 °C -8.8 °C 34428.8 hPa NNE 3.1 km/h 3.7 km/h 62 % 0 mm
23:10 -5.8 °C -8.7 °C 34395 hPa Calm   2.6 km/h 73 % 0 mm
23:13 -4.5 °C -8.7 °C 34428.8 hPa NE 6 km/h 6 km/h 63 % 0 mm
23:18 -4.6 °C -8.7 °C 34428.8 hPa Calm     63 % 0 mm
23:20 -5.9 °C -8.6 °C 34395 hPa Calm     74 % 0 mm
23:23 -4.6 °C -8.7 °C 34428.8 hPa NE 6 km/h 6 km/h 63 % 0 mm
23:28 -4.6 °C -8.7 °C 34428.8 hPa NNE 3.1 km/h 3.1 km/h 63 % 0 mm
23:30 -5.9 °C -8.6 °C 34395 hPa Calm     74 % 0 mm
23:33 -4.6 °C -8.8 °C 34428.8 hPa NNE 6 km/h 6 km/h 63 % 0 mm
23:38 -4.6 °C -8.8 °C 34395 hPa NNE 6 km/h   63 % 0 mm
23:40 -6 °C -8.7 °C 34395 hPa Calm     74 % 0 mm
23:44 -4.7 °C -8.8 °C 34395 hPa NNE 3.1 km/h   63 % 0 mm
23:49 -4.7 °C -8.8 °C 34395 hPa NNE 6.3 km/h 6.3 km/h 63 % 0 mm
23:50 -6.1 °C -8.8 °C 34395 hPa Calm     74 % 0 mm
23:54 -4.8 °C -8.8 °C 34395 hPa ENE 6 km/h 6 km/h 64 % 0 mm
23:59 -4.8 °C -8.8 °C 34395 hPa NNE 6 km/h 6 km/h 64 % 0 mm
Meteo Sesrovires
Elogis d' Weather Underground - 1.75 mb

Guio original per  Jim McMurry - jmcmurry@mwt.net Adaptat per a la plantilla per  Wim van der Kuil - Leuven-Template.eu

Trobareu la nostra informacio del temps tambe a:

Weather Underground

AWEKAS